createdAt,value
2023-11-07T00:02:04.151Z,4.50
2023-11-07T00:05:05.570Z,4.35
2023-11-07T00:08:06.943Z,4.88
2023-11-07T00:11:08.310Z,4.30
2023-11-07T00:14:09.652Z,4.35
2023-11-07T00:17:10.990Z,4.83
2023-11-07T00:20:12.314Z,4.68
2023-11-07T00:23:13.656Z,4.38
2023-11-07T00:26:15.003Z,4.15
2023-11-07T00:29:16.355Z,4.57
2023-11-07T00:32:17.846Z,3.63
2023-11-07T00:35:19.204Z,4.78
2023-11-07T00:38:20.579Z,3.70
2023-11-07T00:41:21.964Z,4.35
2023-11-07T00:44:23.321Z,4.70
2023-11-07T00:47:24.702Z,3.70
2023-11-07T00:50:26.056Z,4.55
2023-11-07T00:53:27.415Z,4.43
2023-11-07T00:56:28.827Z,3.30
2023-11-07T00:59:30.171Z,4.05
2023-11-07T01:02:31.611Z,4.50
2023-11-07T01:05:33.104Z,3.25
2023-11-07T01:08:34.595Z,3.28
2023-11-07T01:11:36.026Z,3.20
2023-11-07T01:14:37.422Z,4.20
2023-11-07T01:17:38.939Z,3.87
2023-11-07T01:20:40.445Z,3.45
2023-11-07T01:23:41.827Z,2.97
2023-11-07T01:26:43.242Z,3.35
2023-11-07T01:29:44.633Z,3.35
2023-11-07T01:32:46.089Z,3.23
2023-11-07T01:35:47.518Z,3.63
2023-11-07T01:38:49.892Z,3.83
2023-11-07T01:41:52.070Z,3.40
2023-11-07T01:44:53.497Z,2.85
2023-11-07T01:47:54.977Z,3.27
2023-11-07T01:50:56.474Z,3.22
2023-11-07T01:53:57.899Z,3.58
2023-11-07T01:56:59.257Z,3.90
2023-11-07T02:00:00.661Z,3.60
2023-11-07T02:03:02.339Z,3.83
2023-11-07T02:06:03.796Z,3.25
2023-11-07T02:09:05.205Z,3.40
2023-11-07T02:12:06.567Z,3.42
2023-11-07T02:15:07.942Z,2.95
2023-11-07T02:18:09.473Z,2.80
2023-11-07T02:21:10.928Z,2.85
2023-11-07T02:24:12.343Z,3.17
2023-11-07T02:27:13.730Z,2.97
2023-11-07T02:30:15.077Z,3.35
2023-11-07T02:33:16.595Z,3.47
2023-11-07T02:36:18.056Z,2.15
2023-11-07T02:39:19.447Z,2.97
2023-11-07T02:42:20.804Z,2.55
2023-11-07T02:45:22.163Z,2.72
2023-11-07T02:48:23.584Z,2.83
2023-11-07T02:51:24.991Z,2.50
2023-11-07T02:54:26.342Z,1.85
2023-11-07T02:57:27.694Z,2.25
2023-11-07T03:00:29.029Z,2.45
2023-11-07T03:03:30.509Z,2.27
2023-11-07T03:06:32.035Z,2.67
2023-11-07T03:09:33.418Z,2.97
2023-11-07T03:12:34.769Z,3.00
2023-11-07T03:15:36.113Z,2.90
2023-11-07T03:18:37.616Z,3.17
2023-11-07T03:21:39.030Z,2.38
2023-11-07T03:24:40.388Z,2.70
2023-11-07T03:27:41.739Z,2.63
2023-11-07T03:30:43.093Z,2.45
2023-11-07T03:33:44.487Z,3.20
2023-11-07T03:36:45.879Z,2.38
2023-11-07T03:39:47.282Z,2.30
2023-11-07T03:42:48.616Z,2.60
2023-11-07T03:45:49.957Z,2.78
2023-11-07T03:48:51.420Z,2.13
2023-11-07T03:51:52.812Z,3.25
2023-11-07T03:54:54.162Z,2.47
2023-11-07T03:57:55.496Z,2.00
2023-11-07T04:00:56.907Z,2.05
2023-11-07T04:03:58.319Z,2.50
2023-11-07T04:06:59.726Z,2.47
2023-11-07T04:10:01.083Z,2.17
2023-11-07T04:13:02.427Z,1.88
2023-11-07T04:16:03.993Z,2.20
2023-11-07T04:19:05.533Z,2.33
2023-11-07T04:22:06.934Z,2.17
2023-11-07T04:25:08.367Z,1.80
2023-11-07T04:28:09.748Z,2.28
2023-11-07T04:31:11.104Z,2.28
2023-11-07T04:34:12.476Z,2.20
2023-11-07T04:37:13.880Z,2.58
2023-11-07T04:40:15.226Z,2.30
2023-11-07T04:43:16.582Z,2.13
2023-11-07T04:46:17.903Z,2.08
2023-11-07T04:49:19.525Z,1.97
2023-11-07T04:52:21.050Z,2.25
2023-11-07T04:55:22.409Z,2.08
2023-11-07T04:58:23.764Z,2.22
2023-11-07T05:01:25.143Z,2.33
2023-11-07T05:04:26.572Z,1.80
2023-11-07T05:07:27.960Z,2.10
2023-11-07T05:10:29.286Z,2.13
2023-11-07T05:13:30.656Z,1.60
2023-11-07T05:16:31.986Z,1.67
2023-11-07T05:19:33.325Z,1.70
2023-11-07T05:22:34.681Z,1.75
2023-11-07T05:25:36.033Z,2.50
2023-11-07T05:28:37.379Z,1.80
2023-11-07T05:31:38.722Z,1.63
2023-11-07T05:34:40.053Z,1.83
2023-11-07T05:37:41.401Z,1.55
2023-11-07T05:40:42.755Z,1.95
2023-11-07T05:43:44.128Z,1.98
2023-11-07T05:46:45.514Z,1.63
2023-11-07T05:49:47.008Z,2.47
2023-11-07T05:52:48.412Z,2.00
2023-11-07T05:55:49.765Z,2.03
2023-11-07T05:58:51.164Z,1.92
2023-11-07T06:01:52.498Z,1.95
2023-11-07T06:04:53.838Z,1.83
2023-11-07T06:07:55.157Z,2.08
2023-11-07T06:10:56.493Z,1.65
2023-11-07T06:13:57.868Z,2.15
2023-11-07T06:16:59.197Z,2.60
2023-11-07T06:20:00.553Z,2.00
2023-11-07T06:23:01.906Z,2.22
2023-11-07T06:26:03.262Z,2.35
2023-11-07T06:29:04.636Z,2.30
2023-11-07T06:32:05.992Z,3.20
2023-11-07T06:35:07.390Z,2.70
2023-11-07T06:38:08.783Z,3.30
2023-11-07T06:41:10.244Z,3.15
2023-11-07T06:44:11.621Z,3.47
2023-11-07T06:47:12.985Z,2.80
2023-11-07T06:50:14.463Z,2.60
2023-11-07T06:53:15.838Z,2.78
2023-11-07T06:56:17.369Z,3.90
2023-11-07T06:59:18.756Z,5.50
2023-11-07T07:02:20.155Z,6.60
2023-11-07T07:05:21.555Z,4.17
2023-11-07T07:08:22.929Z,4.18
2023-11-07T07:11:24.302Z,4.47
2023-11-07T07:14:25.653Z,4.15
2023-11-07T07:17:27.054Z,4.47
2023-11-07T07:20:28.436Z,4.70
2023-11-07T07:23:29.813Z,4.28
2023-11-07T07:26:31.172Z,3.80
2023-11-07T07:29:32.634Z,3.78
2023-11-07T07:32:34.042Z,4.88
2023-11-07T07:35:35.403Z,4.57
2023-11-07T07:38:36.744Z,4.53
2023-11-07T07:41:38.094Z,4.57
2023-11-07T07:44:39.599Z,4.47
2023-11-07T07:47:41.186Z,3.88
2023-11-07T07:50:42.793Z,4.83
2023-11-07T07:53:44.433Z,4.60
2023-11-07T07:56:45.956Z,4.10
2023-11-07T07:59:47.501Z,4.43
2023-11-07T08:02:48.985Z,4.70
2023-11-07T08:05:50.631Z,4.77
2023-11-07T08:08:52.092Z,3.65
2023-11-07T08:11:53.466Z,4.25
2023-11-07T08:14:54.877Z,4.70
2023-11-07T08:17:56.317Z,4.80
2023-11-07T08:20:57.802Z,4.80
2023-11-07T08:23:59.211Z,4.38
2023-11-07T08:27:00.639Z,3.97
2023-11-07T08:30:02.049Z,4.63
2023-11-07T08:33:03.552Z,3.25
2023-11-07T08:36:05.021Z,3.70
2023-11-07T08:39:06.494Z,3.88
2023-11-07T08:42:08.024Z,3.45
2023-11-07T08:45:09.477Z,3.95
2023-11-07T08:48:10.984Z,3.38
2023-11-07T08:51:12.513Z,3.03
2023-11-07T08:54:13.948Z,3.67
2023-11-07T08:57:15.364Z,3.88
2023-11-07T09:00:16.955Z,3.60
2023-11-07T09:03:18.448Z,3.40
2023-11-07T09:06:19.846Z,4.37
2023-11-07T09:09:21.384Z,3.33
2023-11-07T09:12:22.870Z,2.72
2023-11-07T09:15:24.445Z,3.85
2023-11-07T09:18:25.940Z,6.13
2023-11-07T09:21:27.376Z,5.53
2023-11-07T09:24:28.701Z,5.05
2023-11-07T09:27:30.069Z,5.35
2023-11-07T09:30:31.451Z,5.50
2023-11-07T09:33:33.004Z,5.65
2023-11-07T09:36:34.424Z,4.77
2023-11-07T09:39:35.840Z,4.68
2023-11-07T09:42:37.290Z,4.75
2023-11-07T09:45:38.715Z,4.63
2023-11-07T09:48:40.147Z,4.47
2023-11-07T09:51:41.605Z,3.97
2023-11-07T09:54:42.993Z,4.72
2023-11-07T09:57:44.389Z,5.15
2023-11-07T10:00:46.071Z,4.53
2023-11-07T10:03:47.760Z,4.30
2023-11-07T10:06:49.230Z,4.33
2023-11-07T10:09:50.643Z,4.35
2023-11-07T10:12:51.985Z,4.47
2023-11-07T10:15:54.440Z,4.35
2023-11-07T10:18:55.906Z,4.65
2023-11-07T10:21:57.456Z,4.83
2023-11-07T10:24:58.783Z,3.22
2023-11-07T10:28:00.199Z,3.30
2023-11-07T10:31:01.573Z,4.65
2023-11-07T10:34:03.018Z,5.20
2023-11-07T10:37:04.415Z,6.30
2023-11-07T10:40:05.767Z,8.50
2023-11-07T10:43:07.171Z,8.18
2023-11-07T10:46:08.510Z,8.35
2023-11-07T10:49:09.951Z,8.88
2023-11-07T10:52:11.416Z,6.90
2023-11-07T10:55:12.767Z,8.38
2023-11-07T10:58:14.134Z,8.02
2023-11-07T11:01:15.468Z,8.30
2023-11-07T11:04:16.896Z,5.93
2023-11-07T11:07:18.315Z,5.60
2023-11-07T11:10:19.694Z,4.97
2023-11-07T11:13:21.027Z,6.13
2023-11-07T11:16:22.370Z,3.67
2023-11-07T11:19:23.901Z,4.20
2023-11-07T11:22:25.314Z,3.80
2023-11-07T11:25:26.749Z,3.33
2023-11-07T11:28:28.148Z,3.58
2023-11-07T11:31:29.505Z,3.50
2023-11-07T11:34:31.126Z,4.57
2023-11-07T11:37:32.544Z,3.30
2023-11-07T11:40:33.885Z,3.92
2023-11-07T11:43:35.294Z,3.28
2023-11-07T11:46:36.717Z,3.85
2023-11-07T11:49:38.076Z,3.08
2023-11-07T11:52:39.473Z,3.03
2023-11-07T11:55:41.489Z,2.97
2023-11-07T11:58:43.695Z,5.80
2023-11-07T12:01:45.056Z,3.83
2023-11-07T12:04:46.402Z,2.92
2023-11-07T12:07:47.890Z,2.70
2023-11-07T12:10:49.286Z,2.63
2023-11-07T12:13:50.678Z,2.55
2023-11-07T12:16:52.002Z,3.00
2023-11-07T12:19:53.415Z,3.05
2023-11-07T12:22:54.869Z,2.63
2023-11-07T12:25:56.212Z,2.25
2023-11-07T12:28:57.562Z,2.80
2023-11-07T12:31:58.917Z,3.03
2023-11-07T12:35:00.280Z,3.05
2023-11-07T12:38:01.631Z,3.03
2023-11-07T12:41:03.132Z,5.10
2023-11-07T12:44:04.495Z,4.85
2023-11-07T12:47:05.886Z,4.40
2023-11-07T12:50:07.234Z,6.57
2023-11-07T12:53:08.600Z,4.70
2023-11-07T12:56:09.976Z,3.80
2023-11-07T12:59:11.367Z,5.05
2023-11-07T13:02:12.702Z,4.18
2023-11-07T13:05:14.120Z,3.83
2023-11-07T13:08:15.686Z,4.10
2023-11-07T13:11:17.090Z,3.85
2023-11-07T13:14:18.507Z,2.90
2023-11-07T13:17:19.892Z,4.00
2023-11-07T13:20:21.239Z,3.42
2023-11-07T13:23:22.597Z,3.37
2023-11-07T13:26:24.980Z,3.85
2023-11-07T13:29:26.418Z,2.88
2023-11-07T13:32:27.801Z,3.40
2023-11-07T13:35:29.163Z,2.78
2023-11-07T13:38:30.533Z,4.03
2023-11-07T13:41:31.977Z,3.60
2023-11-07T13:44:33.361Z,4.38
2023-11-07T13:47:34.801Z,3.05
2023-11-07T13:50:36.209Z,2.97
2023-11-07T13:53:37.737Z,2.97
2023-11-07T13:56:39.190Z,3.55
2023-11-07T13:59:40.555Z,3.55
2023-11-07T14:02:41.952Z,3.03
2023-11-07T14:05:43.317Z,3.88
2023-11-07T14:08:44.687Z,2.43
2023-11-07T14:11:46.055Z,3.35
2023-11-07T14:14:47.416Z,3.50
2023-11-07T14:17:48.858Z,2.38
2023-11-07T14:20:50.496Z,3.07
2023-11-07T14:23:52.163Z,4.07
2023-11-07T14:26:53.591Z,3.63
2023-11-07T14:30:08.713Z,3.38
2023-11-07T14:33:16.513Z,3.67
2023-11-07T14:36:18.049Z,2.50
2023-11-07T14:39:19.477Z,2.67
2023-11-07T14:42:20.984Z,3.90
2023-11-07T14:45:22.409Z,4.07
2023-11-07T14:48:23.981Z,3.38
2023-11-07T14:51:25.434Z,3.00
2023-11-07T14:54:26.827Z,3.55
2023-11-07T14:57:28.247Z,5.38
2023-11-07T15:00:29.624Z,4.88
2023-11-07T15:03:31.105Z,5.00
2023-11-07T15:06:32.650Z,5.70
2023-11-07T15:09:34.158Z,5.40
2023-11-07T15:12:35.518Z,5.53
2023-11-07T15:15:36.974Z,4.45
2023-11-07T15:18:38.439Z,4.35
2023-11-07T15:21:39.807Z,4.30
2023-11-07T15:24:41.207Z,4.55
2023-11-07T15:27:42.563Z,5.13
2023-11-07T15:30:43.908Z,5.35
2023-11-07T15:33:45.417Z,4.68
2023-11-07T15:36:47.022Z,5.27
2023-11-07T15:39:48.374Z,5.75
2023-11-07T15:42:49.758Z,6.05
2023-11-07T15:45:51.154Z,5.63
2023-11-07T15:48:52.683Z,6.32
2023-11-07T15:51:54.135Z,5.27
2023-11-07T15:54:55.491Z,5.40
2023-11-07T15:57:56.827Z,5.10
2023-11-07T16:00:58.168Z,5.43
2023-11-07T16:03:59.595Z,6.25
2023-11-07T16:07:00.982Z,5.03
2023-11-07T16:10:02.336Z,5.72
2023-11-07T16:13:03.784Z,5.70
2023-11-07T16:16:05.374Z,5.07
2023-11-07T16:19:07.078Z,4.72
2023-11-07T16:22:08.490Z,4.93
2023-11-07T16:25:09.921Z,6.35
2023-11-07T16:28:11.291Z,11.40
2023-11-07T16:31:12.637Z,8.48
2023-11-07T16:34:14.116Z,9.55
2023-11-07T16:37:15.547Z,8.37
2023-11-07T16:40:16.909Z,8.98
2023-11-07T16:43:18.258Z,9.50
2023-11-07T16:46:19.624Z,7.75
2023-11-07T16:49:21.042Z,7.95
2023-11-07T16:52:22.449Z,6.87
2023-11-07T16:55:23.803Z,6.20
2023-11-07T16:58:25.186Z,5.88
2023-11-07T17:01:26.522Z,7.35
2023-11-07T17:04:28.026Z,5.22
2023-11-07T17:07:29.475Z,4.80
2023-11-07T17:10:30.844Z,5.05
2023-11-07T17:13:32.204Z,5.55
2023-11-07T17:16:33.569Z,4.20
2023-11-07T17:19:35.603Z,5.13
2023-11-07T17:22:37.124Z,4.33
2023-11-07T17:25:38.509Z,4.68
2023-11-07T17:28:39.844Z,4.93
2023-11-07T17:31:41.284Z,5.15
2023-11-07T17:34:42.670Z,5.05
2023-11-07T17:37:44.072Z,4.80
2023-11-07T17:40:45.451Z,5.38
2023-11-07T17:43:46.778Z,5.03
2023-11-07T17:46:48.149Z,4.07
2023-11-07T17:49:49.507Z,4.28
2023-11-07T17:52:50.873Z,4.60
2023-11-07T17:55:52.285Z,4.28
2023-11-07T17:58:53.648Z,5.38
2023-11-07T18:01:55.016Z,4.65
2023-11-07T18:04:56.429Z,3.83
2023-11-07T18:07:58.087Z,4.37
2023-11-07T18:10:59.872Z,4.72
2023-11-07T18:14:01.700Z,5.00
2023-11-07T18:17:03.470Z,4.10
2023-11-07T18:20:04.954Z,4.63
2023-11-07T18:23:06.677Z,3.70
2023-11-07T18:26:08.555Z,4.07
2023-11-07T18:29:10.578Z,4.43
2023-11-07T18:32:12.340Z,4.22
2023-11-07T18:35:14.204Z,3.85
2023-11-07T18:38:16.079Z,4.10
2023-11-07T18:41:17.988Z,4.85
2023-11-07T18:44:19.526Z,4.65
2023-11-07T18:47:20.869Z,4.20
2023-11-07T18:50:22.342Z,4.03
2023-11-07T18:53:30.434Z,3.80
2023-11-07T18:56:35.586Z,4.88
2023-11-07T18:59:38.045Z,4.28
2023-11-07T19:02:40.166Z,4.10
2023-11-07T19:05:41.677Z,4.50
2023-11-07T19:08:43.618Z,3.77
2023-11-07T19:11:45.600Z,4.13
2023-11-07T19:14:47.031Z,3.97
2023-11-07T19:17:48.973Z,4.22
2023-11-07T19:20:51.104Z,4.13
2023-11-07T19:23:53.133Z,3.73
2023-11-07T19:26:54.661Z,4.00
2023-11-07T19:29:58.979Z,4.18
2023-11-07T19:33:00.677Z,3.88
2023-11-07T19:36:02.649Z,3.55
2023-11-07T19:39:04.460Z,4.37
2023-11-07T19:42:05.923Z,3.80
2023-11-07T19:45:07.748Z,4.32
2023-11-07T19:48:09.698Z,3.78
2023-11-07T19:51:11.764Z,3.45
2023-11-07T19:54:13.304Z,3.87
2023-11-07T19:57:15.215Z,3.58
2023-11-07T20:00:16.787Z,3.65
2023-11-07T20:03:18.766Z,3.60
2023-11-07T20:06:20.815Z,3.65
2023-11-07T20:09:22.824Z,3.23
2023-11-07T20:12:24.879Z,3.10
2023-11-07T20:15:26.869Z,4.00
2023-11-07T20:18:28.879Z,3.97
2023-11-07T20:21:30.445Z,2.92
2023-11-07T20:24:32.034Z,3.73
2023-11-07T20:27:34.170Z,3.83
2023-11-07T20:30:36.382Z,4.85
2023-11-07T20:33:44.916Z,3.47
2023-11-07T20:36:50.889Z,3.90
2023-11-07T20:39:52.289Z,3.37
2023-11-07T20:42:53.629Z,3.85
2023-11-07T20:45:55.022Z,3.20
2023-11-07T20:48:56.561Z,3.97
2023-11-07T20:51:57.973Z,3.13
2023-11-07T20:54:59.844Z,3.23
2023-11-07T20:58:04.482Z,3.70
2023-11-07T21:01:07.925Z,3.30
2023-11-07T21:04:09.882Z,3.17
2023-11-07T21:07:11.349Z,3.72
2023-11-07T21:10:13.014Z,3.17
2023-11-07T21:13:14.417Z,3.25
2023-11-07T21:16:15.774Z,3.63
2023-11-07T21:19:17.346Z,3.60
2023-11-07T21:22:18.763Z,3.03
2023-11-07T21:25:20.110Z,3.47
2023-11-07T21:28:21.476Z,2.97
2023-11-07T21:31:22.847Z,3.75
2023-11-07T21:34:24.245Z,3.20
2023-11-07T21:37:25.632Z,3.38
2023-11-07T21:40:26.964Z,3.30
2023-11-07T21:43:28.297Z,3.10
2023-11-07T21:46:29.748Z,3.28
2023-11-07T21:49:31.283Z,2.50
2023-11-07T21:52:32.675Z,3.80
2023-11-07T21:55:34.026Z,3.23
2023-11-07T21:58:35.372Z,3.35
2023-11-07T22:01:36.712Z,3.45
2023-11-07T22:04:38.160Z,3.58
2023-11-07T22:07:39.533Z,3.25
2023-11-07T22:10:40.878Z,3.17
2023-11-07T22:13:42.248Z,2.75
2023-11-07T22:16:43.683Z,3.38
2023-11-07T22:19:45.009Z,3.10
2023-11-07T22:22:46.367Z,2.72
2023-11-07T22:25:47.688Z,3.23
2023-11-07T22:28:49.091Z,2.80
2023-11-07T22:31:50.470Z,3.38
2023-11-07T22:34:51.792Z,2.97
2023-11-07T22:37:53.132Z,3.70
2023-11-07T22:40:54.454Z,2.63
2023-11-07T22:43:55.819Z,3.35
2023-11-07T22:46:57.200Z,2.97
2023-11-07T22:49:58.542Z,2.40
2023-11-07T22:52:59.913Z,3.25
2023-11-07T22:56:01.440Z,3.30
2023-11-07T22:59:02.823Z,2.47
2023-11-07T23:02:04.218Z,2.95
2023-11-07T23:05:05.554Z,3.30
2023-11-07T23:08:06.888Z,2.65
2023-11-07T23:11:08.224Z,3.33
2023-11-07T23:14:09.592Z,2.78
2023-11-07T23:17:10.954Z,3.10
2023-11-07T23:20:12.369Z,2.63
2023-11-07T23:23:13.713Z,2.88
2023-11-07T23:26:15.078Z,3.10
2023-11-07T23:29:16.499Z,2.80
2023-11-07T23:32:17.831Z,2.75
2023-11-07T23:35:19.174Z,2.63
2023-11-07T23:38:20.545Z,2.75
2023-11-07T23:41:21.906Z,2.53
2023-11-07T23:44:23.262Z,2.65
2023-11-07T23:47:24.664Z,2.85
2023-11-07T23:50:26.035Z,2.25
2023-11-07T23:53:27.482Z,2.90
2023-11-07T23:56:28.905Z,2.73
2023-11-07T23:59:30.303Z,3.05
